Time;durP1;ratioP1;P1;durP2;ratioP2;P2;SDS_P1;SDS_P2;PMS_P1;PMS_P2;Temp;Humidity;BMP_temperature;BMP_pressure;BME280_temperature;BME280_humidity;BME280_pressure;Samples;Min_cycle;Max_cycle;Signal;HPM_P1;HPM_P2
2023/02/23 00:01:40;;;;;;;8.93;8.03;;;;;;;10.54;74.67;98359.16;5044147;27;103654;-67
2023/02/23 00:04:09;;;;;;;13.67;9.97;;;;;;;10.37;75.00;98372.81;5048732;27;103324;-67
2023/02/23 00:06:37;;;;;;;10.93;9.27;;;;;;;10.52;74.95;98363.72;5046934;27;102599;-67
2023/02/23 00:09:14;;;;;;;11.40;9.07;;;;;;;10.54;74.89;98369.72;5047614;27;103548;-68
2023/02/23 00:11:42;;;;;;;13.83;10.73;;;;;;;10.39;75.12;98362.97;5046072;27;104209;-67
2023/02/23 00:14:09;;;;;;;14.03;10.73;;;;;;;9.88;77.38;98351.88;5047516;27;103164;-68
2023/02/23 00:16:37;;;;;;;12.27;9.37;;;;;;;9.67;78.89;98358.78;5048461;27;102681;-68
2023/02/23 00:19:06;;;;;;;13.57;11.50;;;;;;;9.58;79.21;98356.81;5049434;27;103727;-66
2023/02/23 00:21:35;;;;;;;13.20;9.83;;;;;;;10.13;77.63;98356.22;5050993;27;104266;-67
2023/02/23 00:24:08;;;;;;;11.87;9.10;;;;;;;10.32;76.55;98356.50;5053832;27;103175;-67
2023/02/23 00:26:41;;;;;;;9.80;7.70;;;;;;;10.52;75.85;98358.44;5052702;27;102722;-67
2023/02/23 00:29:15;;;;;;;9.03;7.23;;;;;;;10.36;75.73;98355.28;5050070;27;102738;-67
2023/02/23 00:31:44;;;;;;;9.63;8.30;;;;;;;10.20;77.36;98355.63;5048557;27;103325;-68
2023/02/23 00:34:14;;;;;;;9.10;7.87;;;;;;;10.18;77.82;98356.69;5048894;27;103177;-67
2023/02/23 00:36:43;;;;;;;16.67;11.17;;;;;;;10.01;78.95;98352.66;5043971;27;102758;-67
2023/02/23 00:39:20;;;;;;;10.60;8.50;;;;;;;10.05;79.19;98353.28;5049212;27;103628;-67
2023/02/23 00:41:48;;;;;;;14.73;11.27;;;;;;;10.05;79.60;98358.56;5052925;27;103234;-67
2023/02/23 00:44:17;;;;;;;12.90;10.27;;;;;;;10.11;79.86;98358.06;5046578;27;103248;-67
2023/02/23 00:46:48;;;;;;;16.00;12.00;;;;;;;9.96;80.78;98362.75;5042534;27;103110;-67
2023/02/23 00:49:16;;;;;;;18.03;12.90;;;;;;;9.98;81.66;98359.97;5048081;27;103904;-67
2023/02/23 00:51:44;;;;;;;17.43;14.80;;;;;;;9.44;84.83;98357.81;5056924;27;103415;-67
2023/02/23 00:54:14;;;;;;;18.67;14.60;;;;;;;9.66;83.69;98347.38;5052756;27;103549;-68
2023/02/23 00:56:42;;;;;;;19.23;13.67;;;;;;;10.01;82.34;98351.81;5043511;27;102850;-67
2023/02/23 00:59:10;;;;;;;16.87;12.50;;;;;;;10.18;81.62;98348.78;5052455;27;102776;-68
2023/02/23 01:01:40;;;;;;;17.67;13.90;;;;;;;9.99;82.32;98349.31;5056012;27;103772;-68
2023/02/23 01:04:09;;;;;;;17.57;14.23;;;;;;;9.39;86.44;98344.13;5052164;27;103202;-67
2023/02/23 01:06:40;;;;;;;15.83;13.90;;;;;;;9.62;86.25;98345.94;5044444;27;102774;-67
2023/02/23 01:09:09;;;;;;;16.63;14.53;;;;;;;9.77;85.79;98344.78;5047329;27;103497;-67
2023/02/23 01:11:40;;;;;;;14.73;12.33;;;;;;;10.03;84.99;98345.47;5052609;27;104168;-67
2023/02/23 01:14:10;;;;;;;18.03;14.37;;;;;;;9.89;84.89;98338.59;5053950;27;103136;-67
2023/02/23 01:16:38;;;;;;;15.33;11.90;;;;;;;9.96;85.43;98340.78;5054126;27;102691;-67
2023/02/23 01:19:07;;;;;;;16.97;12.23;;;;;;;10.12;84.87;98338.66;5048422;27;103845;-67
2023/02/23 01:21:38;;;;;;;14.97;12.20;;;;;;;10.25;83.76;98344.69;5055230;27;103847;-67
2023/02/23 01:24:06;;;;;;;18.10;12.23;;;;;;;10.22;84.33;98345.78;5044600;27;103330;-67
2023/02/23 01:26:38;;;;;;;17.73;13.87;;;;;;;9.99;85.60;98344.03;5052799;27;103187;-67
2023/02/23 01:29:09;;;;;;;17.90;14.90;;;;;;;9.69;87.11;98341.88;5052917;27;102811;-67
2023/02/23 01:31:38;;;;;;;18.67;14.43;;;;;;;9.68;88.43;98344.63;5045257;27;105712;-67
2023/02/23 01:34:07;;;;;;;16.30;13.23;;;;;;;9.91;87.17;98347.22;5053518;27;104306;-67
2023/02/23 01:36:37;;;;;;;18.20;15.13;;;;;;;9.85;87.69;98345.03;5050788;27;102844;-67
2023/02/23 01:39:07;;;;;;;16.37;14.00;;;;;;;9.86;87.71;98338.81;5061971;27;102848;-67
2023/02/23 01:41:36;;;;;;;21.70;16.97;;;;;;;9.78;87.98;98335.91;5045691;27;104009;-67
2023/02/23 01:44:08;;;;;;;19.60;14.57;;;;;;;9.88;87.54;98341.34;5048697;27;103156;-67
2023/02/23 01:46:38;;;;;;;28.13;19.33;;;;;;;9.63;88.74;98334.41;5046815;27;102687;-67
2023/02/23 01:49:10;;;;;;;19.53;16.43;;;;;;;9.73;89.39;98332.78;5047281;27;102735;-67
2023/02/23 01:51:42;;;;;;;26.27;18.33;;;;;;;9.77;88.40;98342.16;5049292;27;103186;-67
2023/02/23 01:54:16;;;;;;;25.57;18.50;;;;;;;9.69;89.40;98331.31;5049780;27;103254;-67
2023/02/23 01:56:48;;;;;;;27.13;19.10;;;;;;;9.43;90.36;98337.66;5051237;27;102838;-67
2023/02/23 01:59:18;;;;;;;25.73;18.63;;;;;;;9.38;92.01;98329.25;5047895;27;102796;-67
2023/02/23 02:01:47;;;;;;;27.50;19.37;;;;;;;9.28;92.19;98328.25;5050815;27;103951;-67
2023/02/23 02:04:18;;;;;;;25.57;19.23;;;;;;;9.60;89.68;98326.72;5051468;27;105708;-67
2023/02/23 02:06:52;;;;;;;22.50;17.63;;;;;;;9.66;88.77;98330.69;5049035;27;102681;-67
2023/02/23 02:09:24;;;;;;;21.23;18.27;;;;;;;9.57;89.26;98321.69;5052061;27;102880;-67
2023/02/23 02:11:53;;;;;;;20.33;15.80;;;;;;;9.48;90.88;98321.53;5049118;27;104123;-67
2023/02/23 02:14:27;;;;;;;21.23;14.57;;;;;;;9.72;90.32;98317.91;5066284;27;104463;-67
2023/02/23 02:17:15;;;;;;;17.10;13.23;;;;;;;9.93;89.05;98322.53;5045847;27;103199;-66
2023/02/23 02:20:13;;;;;;;16.97;15.17;;;;;;;10.09;87.90;98320.41;5054040;27;103345;-66
2023/02/23 02:23:07;;;;;;;22.70;17.67;;;;;;;9.54;89.86;98316.66;5047834;27;103735;-66
2023/02/23 02:25:49;;;;;;;21.20;16.43;;;;;;;9.74;90.23;98321.25;5046153;27;102584;-67
2023/02/23 02:29:02;;;;;;;25.40;18.87;;;;;;;9.43;90.85;98313.94;5054472;27;102636;-67
2023/02/23 02:32:09;;;;;;;25.53;19.37;;;;;;;9.45;92.53;98317.31;5013227;27;103727;-67
2023/02/23 02:35:10;;;;;;;18.37;14.30;;;;;;;9.77;91.16;98313.13;5049422;27;103217;-66
2023/02/23 02:38:02;;;;;;;23.67;18.37;;;;;;;9.87;90.17;98308.84;5052368;27;103275;-66
2023/02/23 02:40:51;;;;;;;23.43;19.40;;;;;;;9.87;89.50;98313.28;5046708;27;102630;-66
2023/02/23 02:43:26;;;;;;;18.73;15.30;;;;;;;9.88;89.76;98314.94;5051800;27;102681;-68
2023/02/23 02:46:01;;;;;;;24.80;18.80;;;;;;;9.90;89.24;98318.34;5045621;27;104231;-68
2023/02/23 02:48:40;;;;;;;26.97;20.53;;;;;;;9.37;92.59;98303.88;5050944;27;104194;-66
2023/02/23 02:51:18;;;;;;;26.93;19.80;;;;;;;9.39;93.30;98304.59;5044498;27;102624;-66
2023/02/23 02:53:57;;;;;;;22.63;18.73;;;;;;;9.33;93.05;98312.94;5047142;27;103825;-69
2023/02/23 02:56:27;;;;;;;24.27;18.63;;;;;;;9.33;93.21;98308.53;5049872;27;103177;-68
2023/02/23 02:58:55;;;;;;;19.63;15.60;;;;;;;9.69;91.66;98304.09;5047015;27;103182;-68
2023/02/23 04:18:26;;;;;;;24.97;18.13;;;;;;;9.08;93.83;98313.03;5048148;27;103254;-66
2023/02/23 04:20:54;;;;;;;21.90;18.53;;;;;;;8.88;94.42;98311.00;5047884;27;103875;-66
2023/02/23 04:23:22;;;;;;;20.80;17.07;;;;;;;9.04;94.36;98317.69;5049294;27;103964;-66
2023/02/23 04:25:51;;;;;;;19.20;14.83;;;;;;;9.33;93.66;98312.94;5050158;27;104293;-66
2023/02/23 04:28:19;;;;;;;16.87;13.87;;;;;;;9.54;91.84;98316.66;5049692;27;103358;-66
2023/02/23 04:30:47;;;;;;;20.77;16.50;;;;;;;9.59;90.90;98314.50;5048947;27;103049;-66
2023/02/23 04:33:15;;;;;;;23.57;16.03;;;;;;;9.48;91.87;98316.25;5041594;27;104449;-65
2023/02/23 04:35:45;;;;;;;26.33;19.40;;;;;;;9.40;91.61;98308.91;5048209;27;104006;-66
2023/02/23 04:38:12;;;;;;;20.13;16.47;;;;;;;9.53;91.91;98314.97;5049623;27;103212;-66
2023/02/23 04:40:40;;;;;;;18.83;15.63;;;;;;;9.67;91.29;98312.16;5047026;27;102623;-65
2023/02/23 04:43:10;;;;;;;24.47;17.07;;;;;;;9.50;91.18;98309.91;5046569;27;102666;-68
2023/02/23 04:45:38;;;;;;;21.07;15.97;;;;;;;9.54;91.56;98315.81;5043580;27;103211;-68
2023/02/23 04:48:06;;;;;;;19.33;15.37;;;;;;;9.57;91.62;98316.41;5047532;27;103243;-68
2023/02/23 04:50:34;;;;;;;21.83;17.83;;;;;;;9.49;91.77;98312.69;5050705;27;103027;-68
2023/02/23 04:53:04;;;;;;;15.00;13.30;;;;;;;9.59;91.57;98311.88;5043078;27;104227;-68
2023/02/23 04:55:32;;;;;;;22.30;17.83;;;;;;;9.53;91.01;98314.13;5043844;27;104062;-68
2023/02/23 04:58:02;;;;;;;19.27;15.23;;;;;;;9.55;91.34;98323.59;5044459;27;103153;-68
2023/02/23 05:00:32;;;;;;;15.77;12.97;;;;;;;9.80;90.71;98318.16;5043938;27;103555;-68
2023/02/23 05:03:00;;;;;;;20.93;16.90;;;;;;;9.86;89.67;98328.28;5051056;27;104093;-68
2023/02/23 05:05:27;;;;;;;18.83;15.03;;;;;;;9.86;89.47;98323.00;5042507;27;103287;-67
2023/02/23 05:07:55;;;;;;;19.33;15.17;;;;;;;9.87;89.67;98324.69;5046658;27;103246;-68
2023/02/23 05:10:24;;;;;;;14.20;12.70;;;;;;;9.98;89.33;98320.38;5043863;27;103917;-68
2023/02/23 05:12:52;;;;;;;20.43;13.97;;;;;;;10.00;88.78;98321.09;5047228;27;104083;-67
2023/02/23 05:15:20;;;;;;;16.77;12.67;;;;;;;10.06;88.33;98313.56;5048951;27;107524;-68
2023/02/23 05:17:50;;;;;;;16.37;12.10;;;;;;;10.09;88.35;98317.78;5056020;27;103303;-68
2023/02/23 05:20:18;;;;;;;16.30;13.97;;;;;;;9.97;88.65;98318.69;5051002;27;102703;-68
2023/02/23 05:22:45;;;;;;;19.17;15.93;;;;;;;10.00;88.19;98315.81;5053569;27;102602;-68
2023/02/23 05:25:14;;;;;;;19.10;14.77;;;;;;;9.97;89.19;98313.41;5049988;27;103607;-68
2023/02/23 05:27:43;;;;;;;20.87;15.70;;;;;;;9.91;89.31;98315.56;5045728;27;104071;-67
2023/02/23 05:30:14;;;;;;;14.37;12.67;;;;;;;9.88;90.13;98310.50;5050974;27;102606;-68
2023/02/23 05:32:42;;;;;;;17.87;14.77;;;;;;;9.95;89.56;98317.97;5043704;27;104037;-67
2023/02/23 05:35:11;;;;;;;23.57;17.33;;;;;;;9.67;90.65;98322.69;5048767;27;103937;-68
2023/02/23 05:37:38;;;;;;;18.73;14.13;;;;;;;9.81;91.26;98324.28;5050259;27;103243;-68
2023/02/23 05:40:08;;;;;;;21.13;15.07;;;;;;;9.83;91.07;98325.00;5056225;27;102958;-66
2023/02/23 05:42:38;;;;;;;20.53;17.20;;;;;;;9.85;90.68;98323.94;5049652;27;104036;-68
2023/02/23 05:45:09;;;;;;;17.90;15.87;;;;;;;9.90;90.88;98324.47;5047544;27;103257;-68
2023/02/23 05:47:37;;;;;;;16.00;13.33;;;;;;;10.00;90.39;98324.59;5069726;27;104276;-68
2023/02/23 05:50:06;;;;;;;19.73;16.57;;;;;;;9.98;90.17;98325.66;5052461;27;102630;-66
2023/02/23 05:52:40;;;;;;;18.47;14.30;;;;;;;10.06;89.80;98329.41;5024571;27;103790;-68
2023/02/23 05:55:10;;;;;;;16.63;12.97;;;;;;;10.12;89.58;98322.81;5042583;27;104157;-68
2023/02/23 05:57:38;;;;;;;16.97;12.50;;;;;;;10.12;89.38;98323.66;5044037;27;103206;-68
2023/02/23 06:00:10;;;;;;;21.63;16.27;;;;;;;10.04;88.93;98322.56;5024943;27;103975;-69
2023/02/23 06:02:40;;;;;;;21.40;17.67;;;;;;;9.88;90.55;98329.00;5028283;27;103187;-68
2023/02/23 06:05:08;;;;;;;23.33;17.57;;;;;;;9.66;92.70;98330.69;5032246;27;104186;-67
2023/02/23 06:07:36;;;;;;;22.37;17.47;;;;;;;9.75;93.13;98320.31;5047646;27;105299;-68
2023/02/23 06:10:05;;;;;;;19.47;15.53;;;;;;;9.94;92.47;98325.03;5041837;27;103077;-68
2023/02/23 06:12:33;;;;;;;24.20;19.47;;;;;;;9.81;91.92;98330.41;5036922;27;103541;-68
2023/02/23 06:15:01;;;;;;;24.53;19.13;;;;;;;9.59;93.69;98327.69;5031201;27;104170;-65
2023/02/23 06:17:30;;;;;;;22.00;17.47;;;;;;;9.80;93.19;98328.72;5037339;27;103575;-64
2023/02/23 06:20:00;;;;;;;20.97;14.37;;;;;;;9.80;93.53;98328.72;5043763;27;103793;-65
2023/02/23 06:22:28;;;;;;;19.43;14.77;;;;;;;9.98;92.49;98337.06;5042907;27;102729;-65
2023/02/23 06:24:56;;;;;;;20.30;16.07;;;;;;;10.03;91.84;98334.06;5041732;27;103217;-65
2023/02/23 06:27:25;;;;;;;18.60;14.67;;;;;;;10.07;91.45;98335.53;5044403;27;103923;-65
2023/02/23 06:29:53;;;;;;;19.83;15.63;;;;;;;10.09;91.52;98333.59;5037650;27;102761;-65
2023/02/23 06:32:20;;;;;;;20.37;17.20;;;;;;;10.10;91.18;98336.16;5044115;27;102992;-65
2023/02/23 06:34:51;;;;;;;24.60;18.63;;;;;;;9.98;91.05;98349.41;5033212;27;103326;-65
2023/02/23 06:37:19;;;;;;;20.67;17.90;;;;;;;10.00;91.76;98347.50;5027590;27;105857;-65
2023/02/23 06:39:49;;;;;;;23.63;18.90;;;;;;;9.86;92.09;98344.09;5043164;27;103118;-65
2023/02/23 06:42:17;;;;;;;19.27;15.73;;;;;;;10.04;92.22;98348.97;5042322;27;103046;-65
2023/02/23 06:44:45;;;;;;;16.33;14.40;;;;;;;10.10;92.07;98351.97;5036075;27;103317;-65
2023/02/23 06:47:13;;;;;;;23.67;17.93;;;;;;;10.03;91.47;98356.03;5043476;27;103222;-65
2023/02/23 06:49:41;;;;;;;19.97;16.33;;;;;;;10.11;91.87;98350.16;5046022;27;103123;-65
2023/02/23 06:52:12;;;;;;;23.50;17.23;;;;;;;10.11;91.31;98351.00;5037238;27;102804;-66
2023/02/23 06:54:40;;;;;;;20.20;16.80;;;;;;;9.99;92.39;98353.75;5042072;27;104067;-64
2023/02/23 06:57:08;;;;;;;17.67;13.73;;;;;;;10.17;91.91;98357.66;5039765;27;103963;-65
2023/02/23 06:59:36;;;;;;;17.57;13.10;;;;;;;10.25;91.45;98360.53;5047909;27;102990;-65
2023/02/23 07:02:04;;;;;;;16.20;13.23;;;;;;;10.24;91.13;98364.16;5041003;27;103766;-65
2023/02/23 07:04:33;;;;;;;22.67;17.20;;;;;;;10.22;91.19;98360.78;5042096;27;102826;-66
2023/02/23 07:07:02;;;;;;;19.67;15.43;;;;;;;10.23;91.66;98365.09;5045756;27;103203;-66
2023/02/23 07:09:31;;;;;;;20.87;17.60;;;;;;;10.21;91.62;98369.69;5036901;27;104037;-66
2023/02/23 07:11:59;;;;;;;21.00;16.83;;;;;;;10.24;92.08;98375.56;5038276;27;103865;-66
2023/02/23 07:14:29;;;;;;;18.40;13.93;;;;;;;10.36;91.84;98376.41;5040758;27;103212;-65
2023/02/23 07:16:57;;;;;;;19.37;15.43;;;;;;;10.31;91.62;98373.28;5039834;27;105040;-65
2023/02/23 07:19:25;;;;;;;21.23;16.37;;;;;;;10.41;91.49;98376.91;5042240;27;103290;-67
2023/02/23 07:21:53;;;;;;;21.20;17.43;;;;;;;10.37;91.68;98378.09;5044976;27;102814;-65
2023/02/23 07:24:23;;;;;;;22.43;16.13;;;;;;;10.48;91.82;98373.69;5041768;27;103140;-66
2023/02/23 07:26:52;;;;;;;23.87;20.30;;;;;;;10.43;91.34;98382.91;5042179;27;106315;-66
2023/02/23 07:29:21;;;;;;;26.37;20.13;;;;;;;10.41;91.83;98376.91;5041873;27;102831;-65
2023/02/23 07:31:49;;;;;;;20.17;16.73;;;;;;;10.53;92.38;98381.25;5036775;27;103887;-66
2023/02/23 07:34:17;;;;;;;16.83;14.53;;;;;;;10.70;91.49;98378.13;5041252;27;104142;-65
2023/02/23 07:36:45;;;;;;;17.87;14.50;;;;;;;10.82;91.29;98387.75;5035894;27;104513;-66
2023/02/23 07:39:13;;;;;;;20.60;16.63;;;;;;;10.90;90.75;98387.16;5040239;27;102701;-66
2023/02/23 07:41:41;;;;;;;19.07;13.60;;;;;;;11.01;90.05;98382.72;5041291;27;102768;-66
2023/02/23 07:44:19;;;;;;;25.63;20.27;;;;;;;10.71;92.02;98390.41;5038289;27;103995;-66
2023/02/23 07:46:47;;;;;;;23.97;18.77;;;;;;;10.84;92.58;98384.97;5039075;27;103215;-66
2023/02/23 07:49:15;;;;;;;17.10;14.87;;;;;;;11.07;92.37;98390.16;5037462;27;102758;-64
2023/02/23 07:51:43;;;;;;;18.87;15.83;;;;;;;11.25;91.59;98387.03;5026394;27;103365;-65
2023/02/23 07:54:11;;;;;;;17.73;14.67;;;;;;;11.32;90.53;98401.41;5029587;27;104220;-65
2023/02/23 07:56:38;;;;;;;15.77;12.93;;;;;;;11.38;89.22;98395.66;5035914;27;103249;-65
2023/02/23 07:59:06;;;;;;;14.17;12.50;;;;;;;11.45;88.64;98394.22;5041451;27;102871;-65
2023/02/23 08:01:35;;;;;;;13.70;12.27;;;;;;;11.51;88.55;98397.19;5035715;27;103886;-65
2023/02/23 08:04:04;;;;;;;18.57;14.77;;;;;;;11.55;88.10;98395.13;5039316;27;103226;-65
2023/02/23 08:06:32;;;;;;;21.03;17.27;;;;;;;11.50;88.74;98395.50;5044745;27;103316;-65
2023/02/23 08:09:00;;;;;;;25.30;19.47;;;;;;;11.04;91.09;98390.41;5041674;27;103937;-65
2023/02/23 08:11:28;;;;;;;25.03;19.50;;;;;;;10.81;92.77;98399.28;5047366;27;102714;-65
2023/02/23 08:13:58;;;;;;;20.70;15.63;;;;;;;11.15;91.40;98405.41;5045510;27;103590;-65
2023/02/23 08:16:27;;;;;;;22.70;18.30;;;;;;;11.04;90.28;98398.34;5028750;27;104419;-65
2023/02/23 08:18:59;;;;;;;19.80;15.73;;;;;;;11.27;91.20;98393.03;5038466;27;102805;-66
2023/02/23 08:21:29;;;;;;;19.53;14.10;;;;;;;11.49;91.01;98400.91;5034703;27;104724;-66
2023/02/23 08:23:57;;;;;;;22.13;17.77;;;;;;;11.38;90.10;98395.66;5039653;27;104097;-66
2023/02/23 08:26:25;;;;;;;18.27;14.77;;;;;;;11.55;90.61;98400.41;5035759;27;103209;-66
2023/02/23 08:28:53;;;;;;;18.67;13.00;;;;;;;11.66;90.15;98395.09;5038390;27;103013;-66
2023/02/23 08:31:22;;;;;;;19.07;15.30;;;;;;;11.68;89.89;98395.00;5041111;27;103083;-65
2023/02/23 08:33:52;;;;;;;22.03;19.47;;;;;;;11.28;91.98;98400.00;5042719;27;103914;-69
2023/02/23 08:36:21;;;;;;;23.03;17.83;;;;;;;11.59;91.45;98394.75;5045058;27;103342;-68
2023/02/23 08:38:50;;;;;;;26.43;19.20;;;;;;;11.45;91.60;98391.56;5049712;27;102669;-71
2023/02/23 08:41:20;;;;;;;27.87;19.17;;;;;;;11.19;91.87;98393.63;5049524;27;104426;-68
2023/02/23 08:43:50;;;;;;;20.33;16.30;;;;;;;11.66;91.74;98395.09;5043954;27;103769;-67
2023/02/23 08:46:19;;;;;;;18.40;13.80;;;;;;;11.87;90.96;98392.56;5048457;27;103231;-70
2023/02/23 08:48:47;;;;;;;21.13;15.67;;;;;;;12.00;90.21;98394.06;5048808;27;103006;-71
2023/02/23 08:51:15;;;;;;;19.40;15.73;;;;;;;11.82;91.08;98400.00;5049186;27;102762;-68
2023/02/23 08:53:47;;;;;;;15.20;12.27;;;;;;;12.05;89.18;98399.81;5042252;27;103913;-68
2023/02/23 08:56:15;;;;;;;24.17;18.33;;;;;;;12.10;88.80;98404.69;5046088;27;103496;-68
2023/02/23 08:58:43;;;;;;;21.87;16.83;;;;;;;12.19;89.04;98404.78;5044078;27;103629;-68
2023/02/23 09:01:17;;;;;;;22.33;17.07;;;;;;;11.85;90.37;98402.41;5041445;27;103131;-68
2023/02/23 09:03:45;;;;;;;21.97;18.93;;;;;;;11.32;91.55;98410.19;5047397;27;105429;-68
2023/02/23 09:06:16;;;;;;;24.97;18.20;;;;;;;11.37;92.92;98399.25;5045361;27;104115;-68
2023/02/23 09:08:44;;;;;;;26.27;18.87;;;;;;;11.50;92.44;98407.91;5056060;27;102625;-68
2023/02/23 09:11:13;;;;;;;26.93;20.30;;;;;;;11.54;91.80;98414.59;5043601;27;102769;-68
2023/02/23 09:13:40;;;;;;;22.67;18.97;;;;;;;11.78;91.18;98415.31;5054151;27;103777;-68
2023/02/23 09:16:08;;;;;;;24.33;18.90;;;;;;;11.39;92.26;98419.34;5045264;27;104334;-69
2023/02/23 09:18:37;;;;;;;23.43;18.00;;;;;;;12.02;90.83;98413.28;5049452;27;104469;-69
2023/02/23 09:21:07;;;;;;;19.53;15.07;;;;;;;12.54;88.70;98403.66;5048943;27;102819;-68
2023/02/23 09:23:35;;;;;;;18.23;15.93;;;;;;;12.60;87.73;98403.13;5046442;27;104076;-68
2023/02/23 09:26:04;;;;;;;23.33;19.40;;;;;;;12.17;87.23;98406.72;5052849;27;103222;-68
2023/02/23 09:28:34;;;;;;;26.27;19.77;;;;;;;11.95;89.26;98416.59;5051883;27;102628;-69
2023/02/23 09:31:05;;;;;;;25.50;19.53;;;;;;;11.82;90.53;98416.72;5040202;27;102742;-68
2023/02/23 09:33:33;;;;;;;25.23;19.73;;;;;;;12.16;89.56;98414.78;5055908;27;104200;-69
2023/02/23 09:36:05;;;;;;;28.27;20.10;;;;;;;11.77;89.75;98412.78;5050574;27;103503;-69
2023/02/23 09:38:33;;;;;;;25.50;19.83;;;;;;;12.00;88.51;98414.38;5050222;27;102712;-69
2023/02/23 09:41:01;;;;;;;24.07;19.13;;;;;;;12.23;87.42;98415.13;5044947;27;103973;-66
2023/02/23 09:43:37;;;;;;;21.90;18.00;;;;;;;12.34;86.27;98417.72;5039352;27;103989;-66
2023/02/23 09:46:28;;;;;;;21.33;17.23;;;;;;;12.01;85.66;98413.44;5053348;27;103262;-66
2023/02/23 09:49:02;;;;;;;16.57;14.27;;;;;;;12.57;86.68;98406.88;5040280;27;102791;-66
2023/02/23 09:51:33;;;;;;;22.63;17.97;;;;;;;12.97;83.69;98408.78;5047541;27;104006;-65
2023/02/23 09:54:03;;;;;;;23.47;16.97;;;;;;;13.36;83.60;98403.47;5049427;27;103006;-66
2023/02/23 09:56:34;;;;;;;17.40;15.23;;;;;;;13.62;82.86;98409.13;5047038;27;103016;-65
2023/02/23 09:59:05;;;;;;;17.83;15.87;;;;;;;13.93;81.13;98413.38;5050598;27;102703;-66
2023/02/23 10:01:56;;;;;;;20.33;16.23;;;;;;;13.70;81.23;98405.78;5041542;27;105663;-66
2023/02/23 10:04:31;;;;;;;14.67;12.83;;;;;;;13.90;81.15;98405.69;5050437;27;103242;-66
2023/02/23 10:07:04;;;;;;;14.27;12.60;;;;;;;13.88;79.86;98404.16;5045661;27;103180;-65
2023/02/23 10:10:02;;;;;;;16.33;11.57;;;;;;;14.22;79.34;98404.59;5056676;27;103819;-66
2023/02/23 10:12:42;;;;;;;22.07;16.57;;;;;;;13.78;80.71;98403.31;5043327;27;104118;-66
2023/02/23 10:15:20;;;;;;;20.63;15.47;;;;;;;13.66;80.49;98410.56;5053872;27;103226;-66
2023/02/23 10:18:01;;;;;;;17.60;13.70;;;;;;;13.72;81.07;98404.72;5043776;27;103126;-66
2023/02/23 10:20:43;;;;;;;14.13;12.63;;;;;;;14.11;79.38;98400.25;5046979;27;102995;-66
2023/02/23 10:23:16;;;;;;;17.30;14.63;;;;;;;14.47;77.74;98407.53;5047134;27;102712;-66
2023/02/23 10:25:49;;;;;;;23.60;14.60;;;;;;;14.48;77.38;98397.75;5054373;27;104195;-66
2023/02/23 10:28:21;;;;;;;17.70;15.80;;;;;;;14.92;76.99;98407.72;5041663;27;104060;-66
2023/02/23 10:30:52;;;;;;;18.00;15.40;;;;;;;14.84;75.28;98399.63;5044340;27;102815;-66
2023/02/23 10:33:24;;;;;;;16.93;13.33;;;;;;;15.34;74.35;98400.13;5042997;27;103772;-66
2023/02/23 10:35:59;;;;;;;12.07;10.87;;;;;;;15.23;75.63;98405.63;5052460;27;104611;-66
2023/02/23 10:38:40;;;;;;;15.70;13.03;;;;;;;15.36;73.83;98406.13;5043116;27;103312;-68
2023/02/23 10:41:09;;;;;;;11.73;10.23;;;;;;;15.21;75.90;98402.28;5045346;27;102761;-68
2023/02/23 10:43:39;;;;;;;13.07;11.20;;;;;;;15.39;74.24;98404.97;5046644;27;104047;-69
2023/02/23 10:46:17;;;;;;;17.43;12.67;;;;;;;14.97;74.12;98405.44;5054174;27;104100;-68
2023/02/23 10:48:47;;;;;;;13.90;12.23;;;;;;;14.90;73.27;98403.53;5051267;27;103233;-67
2023/02/23 10:51:19;;;;;;;15.20;11.57;;;;;;;15.12;73.69;98408.47;5045477;27;102572;-67
2023/02/23 10:53:48;;;;;;;15.37;12.03;;;;;;;14.73;73.31;98417.56;5044713;27;102748;-68
2023/02/23 10:56:18;;;;;;;13.23;10.80;;;;;;;14.92;74.47;98406.88;5051276;27;103274;-68
2023/02/23 10:58:48;;;;;;;14.30;11.80;;;;;;;14.28;76.99;98407.53;5057661;27;103405;-67
2023/02/23 11:01:35;;;;;;;14.53;12.17;;;;;;;14.16;75.61;98408.63;5051161;27;102710;-66
2023/02/23 11:04:16;;;;;;;14.23;10.07;;;;;;;14.30;75.30;98404.72;5050100;27;103656;-66
2023/02/23 11:06:44;;;;;;;16.47;11.67;;;;;;;14.23;74.30;98407.09;5046143;27;103243;-66
2023/02/23 11:09:24;;;;;;;11.20;8.30;;;;;;;14.85;74.25;98405.78;5051777;27;103242;-66
2023/02/23 11:12:20;;;;;;;9.00;8.10;;;;;;;15.35;73.67;98393.81;5043699;27;103089;-67
2023/02/23 11:14:49;;;;;;;8.67;7.53;;;;;;;15.33;72.66;98394.91;5046429;27;104081;-68
2023/02/23 11:17:29;;;;;;;11.60;7.80;;;;;;;15.46;70.93;98392.78;5045918;27;104156;-67
2023/02/23 11:20:06;;;;;;;10.90;7.13;;;;;;;15.59;71.04;98385.28;5048256;27;103284;-68
2023/02/23 11:22:37;;;;;;;11.00;7.17;;;;;;;15.79;71.06;98384.19;5047980;27;102645;-66
2023/02/23 11:25:17;;;;;;;10.43;7.90;;;;;;;15.95;69.15;98383.50;5050402;27;103950;-67
2023/02/23 11:27:52;;;;;;;10.70;8.37;;;;;;;16.13;67.73;98379.84;5049329;27;103234;-68
2023/02/23 11:30:23;;;;;;;13.07;8.77;;;;;;;15.72;66.73;98380.44;5054481;27;104138;-66
2023/02/23 11:32:56;;;;;;;7.20;6.30;;;;;;;15.97;70.31;98376.22;5047441;27;102791;-66
2023/02/23 11:35:30;;;;;;;7.77;6.77;;;;;;;15.94;68.86;98371.19;5049356;27;102758;-69
2023/02/23 11:37:59;;;;;;;9.03;8.03;;;;;;;14.92;69.55;98374.94;5044022;27;104353;-68
2023/02/23 11:40:29;;;;;;;9.10;7.63;;;;;;;14.70;69.32;98372.66;5045715;27;103180;-70
2023/02/23 11:43:06;;;;;;;10.70;7.83;;;;;;;15.09;69.81;98364.38;5041667;27;102633;-69
2023/02/23 11:45:38;;;;;;;10.53;6.90;;;;;;;16.12;68.61;98366.66;5044126;27;104031;-69
2023/02/23 11:48:21;;;;;;;9.97;6.23;;;;;;;16.47;66.16;98355.13;5046850;27;104171;-66
2023/02/23 11:50:49;;;;;;;9.97;6.67;;;;;;;16.34;66.30;98355.53;5048692;27;103371;-71
2023/02/23 11:53:21;;;;;;;6.87;6.17;;;;;;;16.79;63.70;98350.88;5046931;27;104151;-70
2023/02/23 11:55:51;;;;;;;8.63;6.83;;;;;;;16.23;65.08;98347.78;5043525;27;103777;-67
2023/02/23 11:58:25;;;;;;;8.93;6.30;;;;;;;16.84;65.24;98342.41;5043243;27;103358;-67
2023/02/23 12:00:58;;;;;;;8.00;6.27;;;;;;;16.83;63.22;98340.72;5052570;27;103302;-67
2023/02/23 12:03:30;;;;;;;7.03;6.10;;;;;;;16.89;63.31;98341.91;5035013;27;102997;-67
2023/02/23 12:06:01;;;;;;;9.35;6.40;;;;;;;15.27;65.88;98353.78;5043170;27;102585;-68
2023/02/23 12:08:37;;;;;;;10.35;6.82;;;;;;;15.42;66.20;98341.66;5018744;27;104892;-68
2023/02/23 12:11:14;;;;;;;9.77;6.40;;;;;;;14.80;67.30;98349.50;5039286;27;103806;-68
2023/02/23 12:13:46;;;;;;;7.47;5.93;;;;;;;15.60;66.19;98337.22;5041181;27;103363;-68
2023/02/23 12:16:18;;;;;;;8.23;6.60;;;;;;;15.68;66.96;98340.94;5043342;27;102732;-69
2023/02/23 12:18:54;;;;;;;9.75;6.25;;;;;;;15.21;66.90;98340.25;5036024;27;104141;-68
2023/02/23 12:21:32;;;;;;;9.07;6.87;;;;;;;15.24;67.59;98340.75;5041109;27;103781;-70
2023/02/23 12:24:09;;;;;;;10.13;6.73;;;;;;;15.94;64.80;98331.22;5038056;27;102976;-70
2023/02/23 12:26:45;;;;;;;7.40;5.23;;;;;;;16.17;63.20;98322.56;5043258;27;102867;-70
2023/02/23 12:29:21;;;;;;;10.48;5.82;;;;;;;15.82;63.77;98335.09;5043377;27;103273;-66
2023/02/23 12:31:56;;;;;;;7.85;4.93;;;;;;;17.10;63.81;98323.66;5044751;27;103306;-67
2023/02/23 12:34:30;;;;;;;6.82;6.00;;;;;;;16.23;62.08;98331.78;5033751;27;102704;-70
2023/02/23 12:37:06;;;;;;;4.85;4.38;;;;;;;16.69;64.77;98330.63;5038132;27;103151;-68
2023/02/23 12:39:38;;;;;;;11.80;6.75;;;;;;;15.03;66.34;98329.53;5037642;27;103846;-68
2023/02/23 12:42:13;;;;;;;9.45;4.90;;;;;;;14.74;67.16;98328.81;5031373;27;104573;-68
2023/02/23 12:44:46;;;;;;;10.93;5.43;;;;;;;14.80;67.74;98328.22;5030826;27;103684;-68
2023/02/23 12:47:24;;;;;;;18.52;6.60;;;;;;;15.31;65.20;98322.38;5036001;27;102986;-68
2023/02/23 12:49:59;;;;;;;9.63;5.37;;;;;;;14.68;67.58;98326.75;5033789;27;104245;-67
2023/02/23 12:52:31;;;;;;;7.97;5.97;;;;;;;14.59;68.70;98324.97;5042828;27;103309;-68